createdAt,value
2022-12-31T00:03:47.979Z,5.70
2022-12-31T00:08:55.240Z,5.68
2022-12-31T00:13:59.431Z,5.70
2022-12-31T00:19:06.571Z,5.70
2022-12-31T00:24:13.174Z,5.72
2022-12-31T00:29:16.703Z,5.79
2022-12-31T00:34:20.853Z,5.86
2022-12-31T00:39:25.099Z,5.91
2022-12-31T00:44:29.137Z,5.94
2022-12-31T00:49:32.930Z,6.04
2022-12-31T00:54:36.858Z,6.09
2022-12-31T00:59:40.618Z,6.20
2022-12-31T01:04:45.021Z,6.26
2022-12-31T01:09:48.782Z,6.33
2022-12-31T01:14:52.675Z,6.38
2022-12-31T01:19:56.499Z,6.41
2022-12-31T01:25:00.245Z,6.45
2022-12-31T01:30:06.269Z,6.49
2022-12-31T01:35:10.164Z,6.50
2022-12-31T01:40:14.296Z,6.48
2022-12-31T01:45:18.181Z,6.48
2022-12-31T01:50:36.855Z,6.52
2022-12-31T01:55:46.840Z,6.57
2022-12-31T02:00:53.621Z,6.58
2022-12-31T02:06:07.723Z,6.59
2022-12-31T02:11:36.904Z,6.65
2022-12-31T02:17:14.629Z,6.71
2022-12-31T02:22:31.385Z,6.74
2022-12-31T02:28:19.897Z,6.79
2022-12-31T02:33:53.942Z,6.83
2022-12-31T02:38:59.556Z,6.86
2022-12-31T02:44:23.837Z,6.84
2022-12-31T02:50:14.382Z,6.82
2022-12-31T02:55:59.769Z,6.80
2022-12-31T03:01:22.593Z,6.70
2022-12-31T03:06:26.885Z,6.62
2022-12-31T03:11:49.433Z,6.59
2022-12-31T03:16:53.042Z,6.62
2022-12-31T03:22:15.633Z,6.67
2022-12-31T03:27:19.637Z,6.72
2022-12-31T03:32:23.563Z,6.76
2022-12-31T03:37:27.287Z,6.81
2022-12-31T03:42:33.784Z,6.81
2022-12-31T03:47:37.733Z,6.81
2022-12-31T03:52:42.259Z,6.82
2022-12-31T03:57:46.177Z,6.82
2022-12-31T04:02:51.251Z,6.79
2022-12-31T04:07:56.061Z,6.79
2022-12-31T04:13:02.660Z,6.84
2022-12-31T04:18:06.498Z,6.87
2022-12-31T04:23:10.629Z,6.84
2022-12-31T04:28:14.262Z,6.82
2022-12-31T04:33:17.967Z,6.82
2022-12-31T04:38:21.909Z,6.80
2022-12-31T04:43:25.831Z,6.74
2022-12-31T04:48:29.641Z,6.68
2022-12-31T04:53:33.663Z,6.55
2022-12-31T04:58:39.167Z,6.49
2022-12-31T05:03:42.964Z,6.41
2022-12-31T05:08:47.205Z,6.28
2022-12-31T05:13:50.956Z,6.23
2022-12-31T05:18:54.605Z,6.16
2022-12-31T05:23:58.372Z,6.12
2022-12-31T05:29:02.608Z,6.09
2022-12-31T05:34:06.326Z,6.08
2022-12-31T05:39:09.952Z,6.13
2022-12-31T05:44:14.087Z,6.18
2022-12-31T05:49:17.701Z,6.23
2022-12-31T05:54:21.859Z,6.27
2022-12-31T05:59:26.075Z,6.35
2022-12-31T06:04:29.910Z,6.44
2022-12-31T06:09:33.510Z,6.51
2022-12-31T06:14:43.753Z,6.59
2022-12-31T06:19:49.361Z,6.63
2022-12-31T06:24:53.010Z,6.71
2022-12-31T06:29:57.003Z,6.77
2022-12-31T06:35:00.623Z,6.79
2022-12-31T06:40:05.396Z,6.82
2022-12-31T06:45:10.120Z,6.84
2022-12-31T06:50:13.629Z,6.86
2022-12-31T06:55:19.067Z,6.91
2022-12-31T07:00:23.917Z,6.93
2022-12-31T07:05:59.078Z,6.97
2022-12-31T07:11:24.101Z,7.03
2022-12-31T07:16:45.014Z,7.08
2022-12-31T07:21:53.494Z,7.13
2022-12-31T07:27:28.367Z,7.14
2022-12-31T07:33:00.348Z,7.17
2022-12-31T07:38:31.797Z,7.20
2022-12-31T07:44:31.240Z,7.25
2022-12-31T07:49:39.093Z,7.31
2022-12-31T07:54:42.805Z,7.34
2022-12-31T07:59:58.675Z,7.40
2022-12-31T08:05:11.207Z,7.48
2022-12-31T08:10:28.961Z,7.53
2022-12-31T08:15:34.318Z,7.60
2022-12-31T08:21:35.316Z,7.66
2022-12-31T08:27:28.790Z,7.77
2022-12-31T08:32:59.242Z,7.85
2022-12-31T08:38:33.476Z,7.92
2022-12-31T08:44:06.883Z,7.95
2022-12-31T08:49:11.212Z,7.95
2022-12-31T08:54:15.620Z,7.96
2022-12-31T08:59:36.796Z,7.98
2022-12-31T09:05:07.908Z,8.02
2022-12-31T09:10:39.954Z,8.08
2022-12-31T09:16:14.247Z,8.18
2022-12-31T09:21:18.617Z,8.28
2022-12-31T09:27:03.945Z,8.36
2022-12-31T09:32:21.773Z,8.43
2022-12-31T09:38:17.999Z,8.48
2022-12-31T09:43:46.185Z,8.50
2022-12-31T09:49:48.117Z,8.52
2022-12-31T09:55:24.393Z,8.56
2022-12-31T10:00:59.472Z,8.62
2022-12-31T10:06:54.974Z,8.63
2022-12-31T10:12:41.211Z,8.66
2022-12-31T10:18:08.061Z,8.67
2022-12-31T10:23:54.811Z,8.69
2022-12-31T10:29:41.275Z,8.69
2022-12-31T10:35:13.123Z,8.75
2022-12-31T10:40:46.121Z,8.86
2022-12-31T10:46:29.600Z,8.87
2022-12-31T10:52:04.855Z,8.88
2022-12-31T10:57:45.207Z,8.89
2022-12-31T11:03:25.178Z,8.84
2022-12-31T11:09:48.597Z,8.81
2022-12-31T11:15:29.924Z,8.83
2022-12-31T11:20:57.887Z,8.90
2022-12-31T11:26:12.487Z,8.88
2022-12-31T11:31:52.614Z,8.89
2022-12-31T11:37:37.497Z,8.94
2022-12-31T11:42:44.884Z,9.01
2022-12-31T11:48:30.194Z,9.03
2022-12-31T11:54:01.830Z,9.11
2022-12-31T11:59:19.008Z,9.17
2022-12-31T12:04:25.856Z,9.26
2022-12-31T12:09:34.805Z,9.25
2022-12-31T12:14:43.328Z,9.28
2022-12-31T12:19:55.528Z,9.33
2022-12-31T12:25:17.843Z,9.39
2022-12-31T12:30:28.401Z,9.46
2022-12-31T12:35:36.146Z,9.54
2022-12-31T12:40:41.324Z,9.61
2022-12-31T12:45:52.220Z,9.73
2022-12-31T12:50:56.716Z,9.80
2022-12-31T12:56:17.312Z,9.90
2022-12-31T13:01:27.117Z,9.96
2022-12-31T13:06:49.780Z,10.02
2022-12-31T13:12:07.574Z,10.10
2022-12-31T13:17:49.804Z,10.19
2022-12-31T13:23:18.957Z,10.29
2022-12-31T13:28:26.444Z,10.38
2022-12-31T13:33:50.559Z,10.47
2022-12-31T13:39:03.600Z,10.63
2022-12-31T13:44:37.627Z,10.73
2022-12-31T13:49:53.542Z,10.85
2022-12-31T13:55:27.261Z,10.91
2022-12-31T14:00:40.537Z,11.01
2022-12-31T14:05:58.722Z,11.10
2022-12-31T14:11:47.148Z,11.21
2022-12-31T14:17:04.587Z,11.29
2022-12-31T14:22:22.708Z,11.30
2022-12-31T14:27:42.495Z,11.35
2022-12-31T14:33:21.824Z,11.43
2022-12-31T14:39:14.288Z,11.47
2022-12-31T14:45:08.592Z,11.49
2022-12-31T14:50:21.395Z,11.58
2022-12-31T14:55:34.751Z,11.70
2022-12-31T15:00:52.174Z,11.79
2022-12-31T15:06:25.409Z,11.83
2022-12-31T15:11:50.869Z,11.91
2022-12-31T15:17:08.039Z,12.03
2022-12-31T15:22:33.670Z,12.06
2022-12-31T15:27:42.892Z,12.16
2022-12-31T15:32:48.784Z,12.24
2022-12-31T15:38:37.489Z,12.27
2022-12-31T15:44:30.526Z,12.33
2022-12-31T15:49:45.796Z,12.44
2022-12-31T15:55:03.921Z,12.52
2022-12-31T16:00:27.334Z,12.65
2022-12-31T16:05:38.926Z,12.66
2022-12-31T16:10:53.366Z,12.67
2022-12-31T16:16:36.119Z,12.72
2022-12-31T16:21:49.173Z,12.80
2022-12-31T16:27:10.632Z,12.86
2022-12-31T16:32:20.624Z,12.91
2022-12-31T16:37:29.363Z,12.92
2022-12-31T16:42:44.471Z,12.93
2022-12-31T16:47:57.208Z,12.94
2022-12-31T16:53:17.794Z,12.93
2022-12-31T16:58:38.750Z,12.95
2022-12-31T17:03:58.892Z,12.99
2022-12-31T17:09:22.564Z,13.01
2022-12-31T17:14:33.362Z,12.99
2022-12-31T17:19:53.299Z,13.04
2022-12-31T17:25:19.134Z,13.12
2022-12-31T17:30:37.069Z,13.16
2022-12-31T17:35:49.959Z,13.19
2022-12-31T17:41:21.039Z,13.18
2022-12-31T17:46:38.745Z,13.12
2022-12-31T17:51:54.460Z,13.07
2022-12-31T17:57:02.640Z,13.10
2022-12-31T18:02:14.058Z,13.13
2022-12-31T18:07:19.431Z,13.20
2022-12-31T18:12:26.127Z,13.26
2022-12-31T18:17:31.087Z,13.35
2022-12-31T18:22:36.440Z,13.38
2022-12-31T18:27:44.037Z,13.35
2022-12-31T18:32:49.374Z,13.33
2022-12-31T18:37:53.279Z,13.30
2022-12-31T18:43:02.666Z,13.26
2022-12-31T18:48:12.083Z,13.28
2022-12-31T18:53:21.260Z,13.25
2022-12-31T18:58:25.168Z,13.22
2022-12-31T19:03:29.169Z,13.15
2022-12-31T19:08:34.049Z,13.07
2022-12-31T19:13:38.078Z,12.99
2022-12-31T19:18:42.907Z,12.92
2022-12-31T19:23:47.381Z,12.85
2022-12-31T19:28:52.524Z,12.82
2022-12-31T19:33:57.167Z,12.85
2022-12-31T19:39:01.193Z,12.89
2022-12-31T19:44:04.923Z,12.87
2022-12-31T19:49:12.935Z,12.85
2022-12-31T19:54:16.599Z,12.85
2022-12-31T19:59:20.625Z,12.86
2022-12-31T20:04:24.488Z,12.87
2022-12-31T20:09:28.350Z,12.86
2022-12-31T20:14:32.476Z,12.87
2022-12-31T20:19:36.614Z,12.92
2022-12-31T20:24:40.636Z,12.94
2022-12-31T20:29:44.913Z,12.91
2022-12-31T20:34:49.108Z,12.91
2022-12-31T20:39:52.808Z,12.93
2022-12-31T20:44:56.739Z,12.97
2022-12-31T20:50:11.391Z,13.05
2022-12-31T20:55:18.420Z,13.10
2022-12-31T21:00:23.005Z,13.15
2022-12-31T21:05:27.357Z,13.12
2022-12-31T21:10:31.375Z,13.14
2022-12-31T21:15:45.997Z,13.16
2022-12-31T21:20:53.082Z,13.11
2022-12-31T21:25:57.284Z,13.15
2022-12-31T21:31:06.022Z,13.19
2022-12-31T21:36:10.111Z,13.26
2022-12-31T21:41:34.807Z,13.32
2022-12-31T21:46:54.563Z,13.34
2022-12-31T21:52:23.976Z,13.34
2022-12-31T21:57:27.907Z,13.38
2022-12-31T22:03:04.441Z,13.40
2022-12-31T22:08:08.539Z,13.43
2022-12-31T22:13:13.832Z,13.46
2022-12-31T22:18:17.928Z,13.50
2022-12-31T22:23:22.622Z,13.59
2022-12-31T22:28:38.167Z,13.65
2022-12-31T22:33:45.267Z,13.74
2022-12-31T22:38:54.746Z,13.83
2022-12-31T22:44:04.006Z,14.00
2022-12-31T22:49:11.315Z,14.01
2022-12-31T22:54:15.801Z,14.02
2022-12-31T22:59:20.242Z,14.07
2022-12-31T23:04:24.974Z,14.13
2022-12-31T23:09:48.096Z,14.19
2022-12-31T23:15:10.764Z,14.24
2022-12-31T23:20:38.370Z,14.30
2022-12-31T23:25:51.928Z,14.36
2022-12-31T23:30:55.917Z,14.39
2022-12-31T23:36:07.604Z,14.45
2022-12-31T23:41:21.041Z,14.48
2022-12-31T23:46:25.113Z,14.51
2022-12-31T23:51:28.934Z,14.55
2022-12-31T23:56:32.972Z,14.59
